sensor_id;sensor_type;location;lat;lon;timestamp;P1;durP1;ratioP1;P2;durP2;ratioP2
47960;SDS011;33721;48.852;9.936;2024-01-15T00:02:17;79.18;;;18.30;;
47960;SDS011;33721;48.852;9.936;2024-01-15T00:04:43;72.15;;;18.02;;
47960;SDS011;33721;48.852;9.936;2024-01-15T00:07:08;80.00;;;17.63;;
47960;SDS011;33721;48.852;9.936;2024-01-15T00:09:35;80.00;;;18.10;;
47960;SDS011;33721;48.852;9.936;2024-01-15T00:12:01;65.68;;;16.63;;
47960;SDS011;33721;48.852;9.936;2024-01-15T00:14:27;68.13;;;16.83;;
47960;SDS011;33721;48.852;9.936;2024-01-15T00:16:53;87.30;;;20.48;;
47960;SDS011;33721;48.852;9.936;2024-01-15T00:19:22;76.82;;;20.38;;
47960;SDS011;33721;48.852;9.936;2024-01-15T00:21:49;86.82;;;20.48;;
47960;SDS011;33721;48.852;9.936;2024-01-15T00:24:15;79.47;;;20.75;;
47960;SDS011;33721;48.852;9.936;2024-01-15T00:26:40;91.55;;;21.08;;
47960;SDS011;33721;48.852;9.936;2024-01-15T00:29:07;89.03;;;21.05;;
47960;SDS011;33721;48.852;9.936;2024-01-15T00:31:33;78.30;;;20.52;;
47960;SDS011;33721;48.852;9.936;2024-01-15T00:33:59;82.88;;;20.13;;
47960;SDS011;33721;48.852;9.936;2024-01-15T00:36:24;76.22;;;19.70;;
47960;SDS011;33721;48.852;9.936;2024-01-15T00:38:50;86.35;;;19.63;;
47960;SDS011;33721;48.852;9.936;2024-01-15T00:41:16;83.57;;;21.00;;
47960;SDS011;33721;48.852;9.936;2024-01-15T00:43:44;91.70;;;20.17;;
47960;SDS011;33721;48.852;9.936;2024-01-15T00:46:10;82.78;;;20.35;;
47960;SDS011;33721;48.852;9.936;2024-01-15T00:48:36;80.25;;;21.10;;
47960;SDS011;33721;48.852;9.936;2024-01-15T00:51:03;92.13;;;21.10;;
47960;SDS011;33721;48.852;9.936;2024-01-15T00:53:29;85.38;;;20.58;;
47960;SDS011;33721;48.852;9.936;2024-01-15T00:55:55;86.63;;;21.15;;
47960;SDS011;33721;48.852;9.936;2024-01-15T00:58:20;92.32;;;22.23;;
47960;SDS011;33721;48.852;9.936;2024-01-15T01:00:46;92.38;;;21.70;;
47960;SDS011;33721;48.852;9.936;2024-01-15T01:03:12;81.65;;;19.98;;
47960;SDS011;33721;48.852;9.936;2024-01-15T01:05:37;90.88;;;21.48;;
47960;SDS011;33721;48.852;9.936;2024-01-15T01:08:03;87.18;;;22.75;;
47960;SDS011;33721;48.852;9.936;2024-01-15T01:10:29;87.22;;;22.10;;
47960;SDS011;33721;48.852;9.936;2024-01-15T01:12:55;83.68;;;21.63;;
47960;SDS011;33721;48.852;9.936;2024-01-15T01:15:21;91.10;;;22.42;;
47960;SDS011;33721;48.852;9.936;2024-01-15T01:17:46;92.88;;;22.40;;
47960;SDS011;33721;48.852;9.936;2024-01-15T01:20:12;88.13;;;21.52;;
47960;SDS011;33721;48.852;9.936;2024-01-15T01:22:40;92.50;;;21.83;;
47960;SDS011;33721;48.852;9.936;2024-01-15T01:25:06;92.55;;;22.48;;
47960;SDS011;33721;48.852;9.936;2024-01-15T01:27:31;87.82;;;21.00;;
47960;SDS011;33721;48.852;9.936;2024-01-15T01:29:57;89.85;;;21.02;;
47960;SDS011;33721;48.852;9.936;2024-01-15T01:32:23;90.65;;;21.83;;
47960;SDS011;33721;48.852;9.936;2024-01-15T01:34:48;90.65;;;21.90;;
47960;SDS011;33721;48.852;9.936;2024-01-15T01:37:14;91.72;;;21.70;;
47960;SDS011;33721;48.852;9.936;2024-01-15T01:39:43;86.45;;;21.23;;
47960;SDS011;33721;48.852;9.936;2024-01-15T01:42:09;81.28;;;20.63;;
47960;SDS011;33721;48.852;9.936;2024-01-15T01:44:35;90.53;;;20.38;;
47960;SDS011;33721;48.852;9.936;2024-01-15T01:47:01;81.72;;;19.10;;
47960;SDS011;33721;48.852;9.936;2024-01-15T01:49:28;72.20;;;18.00;;
47960;SDS011;33721;48.852;9.936;2024-01-15T01:51:58;80.65;;;19.02;;
47960;SDS011;33721;48.852;9.936;2024-01-15T01:56:52;76.00;;;17.67;;
47960;SDS011;33721;48.852;9.936;2024-01-15T01:59:18;64.60;;;16.92;;
47960;SDS011;33721;48.852;9.936;2024-01-15T02:01:44;63.20;;;17.40;;
47960;SDS011;33721;48.852;9.936;2024-01-15T02:04:11;73.57;;;18.30;;
47960;SDS011;33721;48.852;9.936;2024-01-15T02:06:37;65.30;;;18.67;;
47960;SDS011;33721;48.852;9.936;2024-01-15T02:09:03;62.90;;;16.67;;
47960;SDS011;33721;48.852;9.936;2024-01-15T02:11:30;64.07;;;16.33;;
47960;SDS011;33721;48.852;9.936;2024-01-15T02:13:56;55.38;;;14.85;;
47960;SDS011;33721;48.852;9.936;2024-01-15T02:16:22;48.78;;;14.88;;
47960;SDS011;33721;48.852;9.936;2024-01-15T02:18:47;58.90;;;15.88;;
47960;SDS011;33721;48.852;9.936;2024-01-15T02:21:13;58.15;;;16.13;;
47960;SDS011;33721;48.852;9.936;2024-01-15T02:23:39;46.22;;;13.05;;
47960;SDS011;33721;48.852;9.936;2024-01-15T02:26:05;59.55;;;13.68;;
47960;SDS011;33721;48.852;9.936;2024-01-15T02:28:31;59.25;;;15.45;;
47960;SDS011;33721;48.852;9.936;2024-01-15T02:30:57;42.17;;;12.85;;
47960;SDS011;33721;48.852;9.936;2024-01-15T02:33:23;48.17;;;13.55;;
47960;SDS011;33721;48.852;9.936;2024-01-15T02:35:49;45.97;;;11.90;;
47960;SDS011;33721;48.852;9.936;2024-01-15T02:38:18;44.25;;;10.93;;
47960;SDS011;33721;48.852;9.936;2024-01-15T02:40:44;46.33;;;11.05;;
47960;SDS011;33721;48.852;9.936;2024-01-15T02:43:10;42.53;;;11.55;;
47960;SDS011;33721;48.852;9.936;2024-01-15T02:45:35;37.50;;;11.27;;
47960;SDS011;33721;48.852;9.936;2024-01-15T02:48:01;36.97;;;10.70;;
47960;SDS011;33721;48.852;9.936;2024-01-15T02:50:27;43.67;;;13.23;;
47960;SDS011;33721;48.852;9.936;2024-01-15T02:52:53;40.92;;;11.85;;
47960;SDS011;33721;48.852;9.936;2024-01-15T02:55:18;47.83;;;12.32;;
47960;SDS011;33721;48.852;9.936;2024-01-15T02:57:44;49.33;;;12.48;;
47960;SDS011;33721;48.852;9.936;2024-01-15T03:00:09;44.78;;;11.07;;
47960;SDS011;33721;48.852;9.936;2024-01-15T03:02:36;44.83;;;12.02;;
47960;SDS011;33721;48.852;9.936;2024-01-15T03:05:06;49.45;;;12.80;;
47960;SDS011;33721;48.852;9.936;2024-01-15T03:07:32;41.13;;;11.65;;
47960;SDS011;33721;48.852;9.936;2024-01-15T03:09:58;44.38;;;11.90;;
47960;SDS011;33721;48.852;9.936;2024-01-15T03:12:24;34.78;;;10.18;;
47960;SDS011;33721;48.852;9.936;2024-01-15T03:14:50;38.13;;;10.48;;
47960;SDS011;33721;48.852;9.936;2024-01-15T03:17:15;43.28;;;10.55;;
47960;SDS011;33721;48.852;9.936;2024-01-15T03:19:41;36.58;;;11.07;;
47960;SDS011;33721;48.852;9.936;2024-01-15T03:22:06;40.22;;;11.27;;
47960;SDS011;33721;48.852;9.936;2024-01-15T03:24:34;35.55;;;8.73;;
47960;SDS011;33721;48.852;9.936;2024-01-15T03:27:00;41.45;;;11.30;;
47960;SDS011;33721;48.852;9.936;2024-01-15T03:29:26;42.97;;;11.35;;
47960;SDS011;33721;48.852;9.936;2024-01-15T03:31:52;38.58;;;11.00;;
47960;SDS011;33721;48.852;9.936;2024-01-15T03:34:17;37.95;;;11.07;;
47960;SDS011;33721;48.852;9.936;2024-01-15T03:36:43;35.97;;;10.95;;
47960;SDS011;33721;48.852;9.936;2024-01-15T03:39:09;40.85;;;10.70;;
47960;SDS011;33721;48.852;9.936;2024-01-15T03:41:34;34.75;;;11.10;;
47960;SDS011;33721;48.852;9.936;2024-01-15T03:44:00;31.75;;;9.68;;
47960;SDS011;33721;48.852;9.936;2024-01-15T03:46:26;36.53;;;10.43;;
47960;SDS011;33721;48.852;9.936;2024-01-15T03:48:52;33.22;;;9.55;;
47960;SDS011;33721;48.852;9.936;2024-01-15T03:51:18;32.35;;;10.60;;
47960;SDS011;33721;48.852;9.936;2024-01-15T03:53:43;34.92;;;10.20;;
47960;SDS011;33721;48.852;9.936;2024-01-15T03:56:09;37.50;;;9.95;;
47960;SDS011;33721;48.852;9.936;2024-01-15T03:58:36;34.15;;;8.90;;
47960;SDS011;33721;48.852;9.936;2024-01-15T04:01:01;37.22;;;11.13;;
47960;SDS011;33721;48.852;9.936;2024-01-15T04:03:27;34.60;;;9.95;;
47960;SDS011;33721;48.852;9.936;2024-01-15T04:05:53;37.42;;;10.50;;
47960;SDS011;33721;48.852;9.936;2024-01-15T04:08:18;35.05;;;10.15;;
47960;SDS011;33721;48.852;9.936;2024-01-15T04:10:44;36.17;;;10.35;;
47960;SDS011;33721;48.852;9.936;2024-01-15T04:13:10;36.20;;;10.60;;
47960;SDS011;33721;48.852;9.936;2024-01-15T04:15:35;39.05;;;10.57;;
47960;SDS011;33721;48.852;9.936;2024-01-15T04:18:02;34.10;;;10.10;;
47960;SDS011;33721;48.852;9.936;2024-01-15T04:20:28;35.72;;;10.35;;
47960;SDS011;33721;48.852;9.936;2024-01-15T04:22:53;35.85;;;9.82;;
47960;SDS011;33721;48.852;9.936;2024-01-15T04:25:19;34.30;;;9.73;;
47960;SDS011;33721;48.852;9.936;2024-01-15T04:27:45;36.65;;;10.13;;
47960;SDS011;33721;48.852;9.936;2024-01-15T04:30:11;29.65;;;9.05;;
47960;SDS011;33721;48.852;9.936;2024-01-15T04:32:36;34.17;;;9.23;;
47960;SDS011;33721;48.852;9.936;2024-01-15T04:35:02;33.38;;;10.10;;
47960;SDS011;33721;48.852;9.936;2024-01-15T04:37:28;29.80;;;9.02;;
47960;SDS011;33721;48.852;9.936;2024-01-15T04:39:54;30.60;;;10.23;;
47960;SDS011;33721;48.852;9.936;2024-01-15T04:42:20;37.22;;;9.23;;
47960;SDS011;33721;48.852;9.936;2024-01-15T04:44:46;27.75;;;7.43;;
47960;SDS011;33721;48.852;9.936;2024-01-15T04:47:12;32.95;;;9.55;;
47960;SDS011;33721;48.852;9.936;2024-01-15T04:49:38;38.30;;;9.60;;
47960;SDS011;33721;48.852;9.936;2024-01-15T04:52:03;29.48;;;8.68;;
47960;SDS011;33721;48.852;9.936;2024-01-15T04:54:29;35.55;;;8.65;;
47960;SDS011;33721;48.852;9.936;2024-01-15T04:56:54;31.73;;;9.13;;
47960;SDS011;33721;48.852;9.936;2024-01-15T04:59:20;30.85;;;8.20;;
47960;SDS011;33721;48.852;9.936;2024-01-15T05:01:46;29.95;;;7.85;;
47960;SDS011;33721;48.852;9.936;2024-01-15T05:04:13;28.35;;;8.68;;
47960;SDS011;33721;48.852;9.936;2024-01-15T05:06:39;30.70;;;9.38;;
47960;SDS011;33721;48.852;9.936;2024-01-15T05:09:05;27.92;;;8.52;;
47960;SDS011;33721;48.852;9.936;2024-01-15T05:11:30;29.63;;;9.18;;
47960;SDS011;33721;48.852;9.936;2024-01-15T05:13:56;30.38;;;9.07;;
47960;SDS011;33721;48.852;9.936;2024-01-15T05:16:22;38.13;;;8.88;;
47960;SDS011;33721;48.852;9.936;2024-01-15T05:18:47;30.70;;;8.95;;
47960;SDS011;33721;48.852;9.936;2024-01-15T05:21:13;30.70;;;8.00;;
47960;SDS011;33721;48.852;9.936;2024-01-15T05:23:38;30.67;;;8.90;;
47960;SDS011;33721;48.852;9.936;2024-01-15T05:26:04;34.03;;;9.15;;
47960;SDS011;33721;48.852;9.936;2024-01-15T05:28:30;37.40;;;9.05;;
47960;SDS011;33721;48.852;9.936;2024-01-15T05:30:55;28.40;;;9.05;;
47960;SDS011;33721;48.852;9.936;2024-01-15T05:33:22;33.92;;;9.32;;
47960;SDS011;33721;48.852;9.936;2024-01-15T05:35:48;34.38;;;10.30;;
47960;SDS011;33721;48.852;9.936;2024-01-15T05:38:15;40.65;;;10.00;;
47960;SDS011;33721;48.852;9.936;2024-01-15T05:40:41;31.10;;;8.63;;
47960;SDS011;33721;48.852;9.936;2024-01-15T05:43:06;29.85;;;9.48;;
47960;SDS011;33721;48.852;9.936;2024-01-15T05:45:33;29.23;;;8.43;;
47960;SDS011;33721;48.852;9.936;2024-01-15T05:48:00;27.08;;;8.60;;
47960;SDS011;33721;48.852;9.936;2024-01-15T05:50:26;28.90;;;9.23;;
47960;SDS011;33721;48.852;9.936;2024-01-15T05:52:51;29.92;;;8.60;;
47960;SDS011;33721;48.852;9.936;2024-01-15T05:55:17;28.33;;;8.57;;
47960;SDS011;33721;48.852;9.936;2024-01-15T05:57:43;34.97;;;9.65;;
47960;SDS011;33721;48.852;9.936;2024-01-15T06:00:10;33.55;;;9.65;;
47960;SDS011;33721;48.852;9.936;2024-01-15T06:02:38;32.15;;;8.75;;
47960;SDS011;33721;48.852;9.936;2024-01-15T06:05:04;29.88;;;8.18;;
47960;SDS011;33721;48.852;9.936;2024-01-15T06:07:31;32.88;;;8.63;;
47960;SDS011;33721;48.852;9.936;2024-01-15T06:09:57;29.63;;;8.63;;
47960;SDS011;33721;48.852;9.936;2024-01-15T06:12:23;32.42;;;9.38;;
47960;SDS011;33721;48.852;9.936;2024-01-15T06:14:49;31.38;;;8.73;;
47960;SDS011;33721;48.852;9.936;2024-01-15T06:17:14;29.55;;;8.57;;
47960;SDS011;33721;48.852;9.936;2024-01-15T06:19:40;32.40;;;9.65;;
47960;SDS011;33721;48.852;9.936;2024-01-15T06:22:05;31.63;;;9.10;;
47960;SDS011;33721;48.852;9.936;2024-01-15T06:24:31;39.45;;;8.25;;
47960;SDS011;33721;48.852;9.936;2024-01-15T06:26:57;35.75;;;9.75;;
47960;SDS011;33721;48.852;9.936;2024-01-15T06:29:25;28.48;;;8.60;;
47960;SDS011;33721;48.852;9.936;2024-01-15T06:31:51;31.73;;;9.00;;
47960;SDS011;33721;48.852;9.936;2024-01-15T06:34:17;31.45;;;8.63;;
47960;SDS011;33721;48.852;9.936;2024-01-15T06:36:42;33.53;;;8.98;;
47960;SDS011;33721;48.852;9.936;2024-01-15T06:39:08;31.35;;;8.70;;
47960;SDS011;33721;48.852;9.936;2024-01-15T06:41:35;33.33;;;8.68;;
47960;SDS011;33721;48.852;9.936;2024-01-15T06:44:06;33.60;;;8.02;;
47960;SDS011;33721;48.852;9.936;2024-01-15T06:46:32;34.83;;;9.35;;
47960;SDS011;33721;48.852;9.936;2024-01-15T06:48:57;32.22;;;8.90;;
47960;SDS011;33721;48.852;9.936;2024-01-15T06:51:23;32.17;;;7.57;;
47960;SDS011;33721;48.852;9.936;2024-01-15T06:53:49;23.92;;;7.18;;
47960;SDS011;33721;48.852;9.936;2024-01-15T06:56:14;27.55;;;7.57;;
47960;SDS011;33721;48.852;9.936;2024-01-15T06:58:40;24.38;;;6.80;;
47960;SDS011;33721;48.852;9.936;2024-01-15T07:01:06;25.30;;;7.72;;
47960;SDS011;33721;48.852;9.936;2024-01-15T07:03:32;27.90;;;8.25;;
47960;SDS011;33721;48.852;9.936;2024-01-15T07:05:58;35.05;;;8.65;;
47960;SDS011;33721;48.852;9.936;2024-01-15T07:08:24;26.08;;;8.07;;
47960;SDS011;33721;48.852;9.936;2024-01-15T07:10:49;30.80;;;8.00;;
47960;SDS011;33721;48.852;9.936;2024-01-15T07:13:15;29.70;;;7.95;;
47960;SDS011;33721;48.852;9.936;2024-01-15T07:15:40;32.78;;;9.23;;
47960;SDS011;33721;48.852;9.936;2024-01-15T07:18:06;24.35;;;7.88;;
47960;SDS011;33721;48.852;9.936;2024-01-15T07:20:32;28.75;;;8.50;;
47960;SDS011;33721;48.852;9.936;2024-01-15T07:22:57;29.95;;;8.77;;
47960;SDS011;33721;48.852;9.936;2024-01-15T07:25:23;37.78;;;10.38;;
47960;SDS011;33721;48.852;9.936;2024-01-15T07:27:51;31.40;;;9.45;;
47960;SDS011;33721;48.852;9.936;2024-01-15T07:30:18;33.58;;;9.70;;
47960;SDS011;33721;48.852;9.936;2024-01-15T07:32:46;30.25;;;7.28;;
47960;SDS011;33721;48.852;9.936;2024-01-15T07:35:13;34.50;;;9.13;;
47960;SDS011;33721;48.852;9.936;2024-01-15T07:37:39;31.55;;;9.43;;
47960;SDS011;33721;48.852;9.936;2024-01-15T07:40:05;30.35;;;9.45;;
47960;SDS011;33721;48.852;9.936;2024-01-15T07:42:33;28.10;;;7.80;;
47960;SDS011;33721;48.852;9.936;2024-01-15T07:45:01;28.20;;;7.93;;
47960;SDS011;33721;48.852;9.936;2024-01-15T07:47:27;28.95;;;7.80;;
47960;SDS011;33721;48.852;9.936;2024-01-15T07:49:53;28.55;;;8.80;;
47960;SDS011;33721;48.852;9.936;2024-01-15T07:52:19;29.27;;;9.52;;
47960;SDS011;33721;48.852;9.936;2024-01-15T07:54:45;29.35;;;9.13;;
47960;SDS011;33721;48.852;9.936;2024-01-15T07:57:10;32.28;;;8.68;;
47960;SDS011;33721;48.852;9.936;2024-01-15T07:59:36;33.50;;;9.93;;
47960;SDS011;33721;48.852;9.936;2024-01-15T08:02:02;32.00;;;9.70;;
47960;SDS011;33721;48.852;9.936;2024-01-15T08:04:28;29.20;;;9.70;;
47960;SDS011;33721;48.852;9.936;2024-01-15T08:06:53;33.45;;;10.30;;
47960;SDS011;33721;48.852;9.936;2024-01-15T08:09:19;32.90;;;10.07;;
47960;SDS011;33721;48.852;9.936;2024-01-15T08:11:45;31.88;;;9.13;;
47960;SDS011;33721;48.852;9.936;2024-01-15T08:14:11;35.58;;;10.30;;
47960;SDS011;33721;48.852;9.936;2024-01-15T08:16:38;30.27;;;9.88;;
47960;SDS011;33721;48.852;9.936;2024-01-15T08:19:04;27.80;;;9.60;;
47960;SDS011;33721;48.852;9.936;2024-01-15T08:21:30;34.42;;;10.15;;
47960;SDS011;33721;48.852;9.936;2024-01-15T08:23:57;34.35;;;9.75;;
47960;SDS011;33721;48.852;9.936;2024-01-15T08:26:26;28.92;;;8.98;;
47960;SDS011;33721;48.852;9.936;2024-01-15T08:28:51;28.90;;;8.95;;
47960;SDS011;33721;48.852;9.936;2024-01-15T08:31:17;26.98;;;8.82;;
47960;SDS011;33721;48.852;9.936;2024-01-15T08:33:43;28.25;;;9.75;;
47960;SDS011;33721;48.852;9.936;2024-01-15T08:36:12;33.78;;;9.52;;
47960;SDS011;33721;48.852;9.936;2024-01-15T08:38:38;35.15;;;9.50;;
47960;SDS011;33721;48.852;9.936;2024-01-15T08:41:03;30.27;;;9.35;;
47960;SDS011;33721;48.852;9.936;2024-01-15T08:43:29;29.58;;;9.05;;
47960;SDS011;33721;48.852;9.936;2024-01-15T08:45:56;28.80;;;9.18;;
47960;SDS011;33721;48.852;9.936;2024-01-15T08:48:22;29.58;;;8.65;;
47960;SDS011;33721;48.852;9.936;2024-01-15T08:50:48;32.67;;;10.48;;
47960;SDS011;33721;48.852;9.936;2024-01-15T08:53:14;27.92;;;9.13;;
47960;SDS011;33721;48.852;9.936;2024-01-15T08:55:40;30.67;;;9.77;;
47960;SDS011;33721;48.852;9.936;2024-01-15T08:58:07;25.92;;;9.15;;
47960;SDS011;33721;48.852;9.936;2024-01-15T09:00:33;26.80;;;9.32;;
47960;SDS011;33721;48.852;9.936;2024-01-15T09:02:59;28.33;;;8.50;;
47960;SDS011;33721;48.852;9.936;2024-01-15T09:05:25;28.85;;;9.82;;
47960;SDS011;33721;48.852;9.936;2024-01-15T09:07:50;28.00;;;9.65;;
47960;SDS011;33721;48.852;9.936;2024-01-15T09:10:17;30.23;;;9.23;;
47960;SDS011;33721;48.852;9.936;2024-01-15T09:12:43;25.50;;;8.50;;
47960;SDS011;33721;48.852;9.936;2024-01-15T09:15:09;23.55;;;8.98;;
47960;SDS011;33721;48.852;9.936;2024-01-15T09:17:34;27.08;;;9.02;;
47960;SDS011;33721;48.852;9.936;2024-01-15T09:20:00;25.40;;;8.82;;
47960;SDS011;33721;48.852;9.936;2024-01-15T09:22:26;26.75;;;8.38;;
47960;SDS011;33721;48.852;9.936;2024-01-15T09:24:52;26.35;;;8.32;;
47960;SDS011;33721;48.852;9.936;2024-01-15T09:27:17;34.60;;;9.40;;
47960;SDS011;33721;48.852;9.936;2024-01-15T09:29:43;27.33;;;7.60;;
47960;SDS011;33721;48.852;9.936;2024-01-15T09:32:10;24.40;;;7.75;;
47960;SDS011;33721;48.852;9.936;2024-01-15T09:34:37;26.92;;;8.60;;
47960;SDS011;33721;48.852;9.936;2024-01-15T09:37:03;26.80;;;8.70;;
47960;SDS011;33721;48.852;9.936;2024-01-15T09:39:29;24.02;;;8.35;;
47960;SDS011;33721;48.852;9.936;2024-01-15T09:41:55;27.88;;;8.75;;
47960;SDS011;33721;48.852;9.936;2024-01-15T09:44:21;19.65;;;7.10;;
47960;SDS011;33721;48.852;9.936;2024-01-15T09:46:47;20.98;;;7.03;;
47960;SDS011;33721;48.852;9.936;2024-01-15T09:49:15;22.83;;;7.05;;
47960;SDS011;33721;48.852;9.936;2024-01-15T09:51:42;25.75;;;7.50;;
47960;SDS011;33721;48.852;9.936;2024-01-15T09:54:08;20.50;;;6.35;;
47960;SDS011;33721;48.852;9.936;2024-01-15T09:56:34;25.60;;;6.88;;
47960;SDS011;33721;48.852;9.936;2024-01-15T09:59:00;25.83;;;7.38;;
47960;SDS011;33721;48.852;9.936;2024-01-15T10:01:26;22.17;;;7.32;;
47960;SDS011;33721;48.852;9.936;2024-01-15T10:03:53;22.15;;;6.90;;
47960;SDS011;33721;48.852;9.936;2024-01-15T10:06:20;19.05;;;6.78;;
47960;SDS011;33721;48.852;9.936;2024-01-15T10:08:47;16.08;;;5.45;;
47960;SDS011;33721;48.852;9.936;2024-01-15T10:11:16;21.80;;;6.70;;
47960;SDS011;33721;48.852;9.936;2024-01-15T10:13:46;22.02;;;7.13;;
47960;SDS011;33721;48.852;9.936;2024-01-15T10:16:12;21.63;;;6.70;;
47960;SDS011;33721;48.852;9.936;2024-01-15T10:18:37;17.65;;;5.65;;
47960;SDS011;33721;48.852;9.936;2024-01-15T10:21:05;22.55;;;7.47;;
47960;SDS011;33721;48.852;9.936;2024-01-15T10:23:32;17.92;;;5.55;;
47960;SDS011;33721;48.852;9.936;2024-01-15T10:25:58;18.38;;;5.50;;
47960;SDS011;33721;48.852;9.936;2024-01-15T10:28:26;25.90;;;7.22;;
47960;SDS011;33721;48.852;9.936;2024-01-15T10:30:52;22.98;;;6.75;;
47960;SDS011;33721;48.852;9.936;2024-01-15T10:33:23;20.42;;;6.57;;
47960;SDS011;33721;48.852;9.936;2024-01-15T10:35:50;18.23;;;4.85;;
47960;SDS011;33721;48.852;9.936;2024-01-15T10:38:20;19.80;;;6.43;;
47960;SDS011;33721;48.852;9.936;2024-01-15T10:40:47;15.20;;;4.93;;
47960;SDS011;33721;48.852;9.936;2024-01-15T10:43:15;21.15;;;7.18;;
47960;SDS011;33721;48.852;9.936;2024-01-15T10:45:43;16.73;;;5.90;;
47960;SDS011;33721;48.852;9.936;2024-01-15T10:50:39;24.30;;;5.90;;
47960;SDS011;33721;48.852;9.936;2024-01-15T10:53:05;21.02;;;7.13;;
47960;SDS011;33721;48.852;9.936;2024-01-15T10:55:33;22.10;;;6.72;;
47960;SDS011;33721;48.852;9.936;2024-01-15T10:58:00;19.05;;;6.55;;
47960;SDS011;33721;48.852;9.936;2024-01-15T11:00:28;21.15;;;6.40;;
47960;SDS011;33721;48.852;9.936;2024-01-15T11:02:54;18.63;;;5.45;;
47960;SDS011;33721;48.852;9.936;2024-01-15T11:05:20;18.88;;;5.95;;
47960;SDS011;33721;48.852;9.936;2024-01-15T11:07:50;17.20;;;4.93;;
47960;SDS011;33721;48.852;9.936;2024-01-15T11:13:20;16.80;;;5.75;;
47960;SDS011;33721;48.852;9.936;2024-01-15T11:18:27;19.38;;;5.85;;
47960;SDS011;33721;48.852;9.936;2024-01-15T11:29:10;13.48;;;4.45;;
47960;SDS011;33721;48.852;9.936;2024-01-15T11:32:08;15.40;;;4.93;;
47960;SDS011;33721;48.852;9.936;2024-01-15T11:37:27;11.77;;;4.30;;
47960;SDS011;33721;48.852;9.936;2024-01-15T11:40:13;16.00;;;5.07;;
47960;SDS011;33721;48.852;9.936;2024-01-15T11:42:42;11.15;;;4.00;;
47960;SDS011;33721;48.852;9.936;2024-01-15T11:45:09;15.18;;;5.40;;
47960;SDS011;33721;48.852;9.936;2024-01-15T11:47:44;13.68;;;4.65;;
47960;SDS011;33721;48.852;9.936;2024-01-15T11:50:29;16.90;;;5.03;;
47960;SDS011;33721;48.852;9.936;2024-01-15T11:53:01;21.73;;;5.38;;
47960;SDS011;33721;48.852;9.936;2024-01-15T11:58:01;16.52;;;5.20;;
47960;SDS011;33721;48.852;9.936;2024-01-15T12:00:31;19.40;;;6.55;;
47960;SDS011;33721;48.852;9.936;2024-01-15T12:02:58;17.60;;;5.13;;
47960;SDS011;33721;48.852;9.936;2024-01-15T12:05:24;20.55;;;6.68;;
47960;SDS011;33721;48.852;9.936;2024-01-15T12:07:50;23.20;;;6.80;;
47960;SDS011;33721;48.852;9.936;2024-01-15T12:10:17;22.08;;;7.32;;
47960;SDS011;33721;48.852;9.936;2024-01-15T12:15:22;20.98;;;7.90;;
47960;SDS011;33721;48.852;9.936;2024-01-15T12:17:48;22.65;;;7.38;;
47960;SDS011;33721;48.852;9.936;2024-01-15T12:20:14;29.77;;;7.85;;
47960;SDS011;33721;48.852;9.936;2024-01-15T12:22:41;23.85;;;7.15;;
47960;SDS011;33721;48.852;9.936;2024-01-15T12:25:06;22.20;;;7.55;;
47960;SDS011;33721;48.852;9.936;2024-01-15T12:27:32;19.35;;;6.60;;
47960;SDS011;33721;48.852;9.936;2024-01-15T12:29:58;20.85;;;6.93;;
47960;SDS011;33721;48.852;9.936;2024-01-15T12:32:24;24.55;;;6.97;;
47960;SDS011;33721;48.852;9.936;2024-01-15T12:34:50;25.05;;;7.85;;
47960;SDS011;33721;48.852;9.936;2024-01-15T12:37:19;25.13;;;7.47;;
47960;SDS011;33721;48.852;9.936;2024-01-15T12:39:45;20.38;;;7.32;;
47960;SDS011;33721;48.852;9.936;2024-01-15T12:42:11;22.65;;;7.40;;
47960;SDS011;33721;48.852;9.936;2024-01-15T12:44:39;24.77;;;6.88;;
47960;SDS011;33721;48.852;9.936;2024-01-15T12:47:04;21.38;;;7.00;;
47960;SDS011;33721;48.852;9.936;2024-01-15T12:49:30;26.23;;;7.20;;
47960;SDS011;33721;48.852;9.936;2024-01-15T12:51:57;25.17;;;8.70;;
47960;SDS011;33721;48.852;9.936;2024-01-15T12:54:23;24.63;;;7.93;;
47960;SDS011;33721;48.852;9.936;2024-01-15T12:56:49;27.77;;;8.95;;
47960;SDS011;33721;48.852;9.936;2024-01-15T12:59:15;21.73;;;7.45;;
47960;SDS011;33721;48.852;9.936;2024-01-15T13:01:41;24.10;;;7.90;;
47960;SDS011;33721;48.852;9.936;2024-01-15T13:04:07;30.65;;;7.95;;
47960;SDS011;33721;48.852;9.936;2024-01-15T13:06:33;26.33;;;7.32;;
47960;SDS011;33721;48.852;9.936;2024-01-15T13:09:05;23.40;;;7.85;;
47960;SDS011;33721;48.852;9.936;2024-01-15T13:11:31;21.45;;;6.97;;
47960;SDS011;33721;48.852;9.936;2024-01-15T13:13:57;22.05;;;7.22;;
47960;SDS011;33721;48.852;9.936;2024-01-15T13:16:23;25.88;;;7.85;;
47960;SDS011;33721;48.852;9.936;2024-01-15T13:18:52;19.98;;;6.82;;
47960;SDS011;33721;48.852;9.936;2024-01-15T13:21:17;20.63;;;7.65;;
47960;SDS011;33721;48.852;9.936;2024-01-15T13:23:43;22.67;;;7.95;;
47960;SDS011;33721;48.852;9.936;2024-01-15T13:26:08;23.48;;;7.63;;
47960;SDS011;33721;48.852;9.936;2024-01-15T13:28:34;23.00;;;7.32;;
47960;SDS011;33721;48.852;9.936;2024-01-15T13:31:00;26.35;;;5.82;;
47960;SDS011;33721;48.852;9.936;2024-01-15T13:33:27;21.35;;;6.68;;
47960;SDS011;33721;48.852;9.936;2024-01-15T13:35:53;19.33;;;6.50;;
47960;SDS011;33721;48.852;9.936;2024-01-15T13:38:18;16.95;;;6.28;;
47960;SDS011;33721;48.852;9.936;2024-01-15T13:40:44;17.95;;;5.82;;
47960;SDS011;33721;48.852;9.936;2024-01-15T13:43:10;21.02;;;6.72;;
47960;SDS011;33721;48.852;9.936;2024-01-15T13:45:37;13.27;;;5.20;;
47960;SDS011;33721;48.852;9.936;2024-01-15T13:48:03;18.30;;;6.35;;
47960;SDS011;33721;48.852;9.936;2024-01-15T13:50:30;18.25;;;6.03;;
47960;SDS011;33721;48.852;9.936;2024-01-15T13:52:56;16.17;;;5.82;;
47960;SDS011;33721;48.852;9.936;2024-01-15T13:55:22;20.70;;;6.30;;
47960;SDS011;33721;48.852;9.936;2024-01-15T13:57:48;19.45;;;6.60;;
47960;SDS011;33721;48.852;9.936;2024-01-15T14:00:14;19.23;;;6.30;;
47960;SDS011;33721;48.852;9.936;2024-01-15T14:02:43;14.90;;;4.88;;
47960;SDS011;33721;48.852;9.936;2024-01-15T14:05:09;16.25;;;6.40;;
47960;SDS011;33721;48.852;9.936;2024-01-15T14:07:37;14.50;;;5.85;;
47960;SDS011;33721;48.852;9.936;2024-01-15T14:10:04;11.75;;;4.50;;
47960;SDS011;33721;48.852;9.936;2024-01-15T14:12:30;20.05;;;6.38;;
47960;SDS011;33721;48.852;9.936;2024-01-15T14:14:56;16.02;;;6.30;;
47960;SDS011;33721;48.852;9.936;2024-01-15T14:17:22;18.23;;;5.57;;
47960;SDS011;33721;48.852;9.936;2024-01-15T14:19:48;15.32;;;5.40;;
47960;SDS011;33721;48.852;9.936;2024-01-15T14:22:13;17.25;;;5.82;;
47960;SDS011;33721;48.852;9.936;2024-01-15T14:24:39;16.58;;;5.25;;
47960;SDS011;33721;48.852;9.936;2024-01-15T14:27:05;14.10;;;5.18;;
47960;SDS011;33721;48.852;9.936;2024-01-15T14:29:32;16.98;;;5.60;;
47960;SDS011;33721;48.852;9.936;2024-01-15T14:31:57;18.23;;;6.47;;
47960;SDS011;33721;48.852;9.936;2024-01-15T14:34:24;13.13;;;5.35;;
47960;SDS011;33721;48.852;9.936;2024-01-15T14:36:50;18.42;;;6.22;;
47960;SDS011;33721;48.852;9.936;2024-01-15T14:39:18;12.80;;;5.55;;
47960;SDS011;33721;48.852;9.936;2024-01-15T14:41:44;15.93;;;5.80;;
47960;SDS011;33721;48.852;9.936;2024-01-15T14:44:11;14.80;;;5.35;;
47960;SDS011;33721;48.852;9.936;2024-01-15T14:46:37;16.13;;;5.53;;
47960;SDS011;33721;48.852;9.936;2024-01-15T14:49:03;16.90;;;6.15;;
47960;SDS011;33721;48.852;9.936;2024-01-15T14:51:29;14.75;;;5.70;;
47960;SDS011;33721;48.852;9.936;2024-01-15T14:53:54;19.77;;;6.15;;